Taiseimaru — JL6483 — position and weather

sailwx.info

Track history (hours):
 
Tides and Currents Weather Stations Pressure Air Temp Water Temp Dewpoint Dewpoint Depression Visibility Wind Speed Wind Dir Waves Ship Positions

Taiseimaru

Last reported at 2016-Sep-30 03:33 UTC. Time now 2016-Sep-30 15:16 UTC.
Position N 34°13' E 135°07'.

Length 84 m; draft 4.7 m.

Type: Cargo ship. MMSI: 431500568.

Date/timePositionNaut miles runAvg speedWind from/ knotsBaromVisibWave heightAir tempDewpointWater temp
2016-Sep-30 03:33N 34°13' E 135°07'1 1.2
2016-Sep-30 02:34N 34°12' E 135°08'1 0.5
2016-Sep-29 23:32N 34°14' E 135°08'0 0.0
2016-Sep-29 21:32N 34°14' E 135°08'0 0.0
2016-Sep-29 20:32N 34°14' E 135°08'0 0.0
2016-Sep-29 19:32N 34°14' E 135°08'0 0.0
2016-Sep-27 19:31N 34°14' E 135°08'0 0.0
2016-Sep-27 14:33N 34°14' E 135°08'0 0.0
2016-Sep-27 13:33N 34°14' E 135°08'11 3.8
2016-Sep-27 10:34N 34°05' E 134°60'11 0.4
2016-Sep-26 02:29N 34°14' E 135°08'0 0.0
2016-Sep-26 01:32N 34°14' E 135°08'0 0.0
2016-Sep-26 00:32N 34°14' E 135°08'1 0.4
2016-Sep-25 21:33N 34°14' E 135°07'1 0.1
2016-Sep-25 17:29N 34°15' E 135°06'7 7.6
2016-Sep-25 16:33N 34°08' E 135°02'7 0.2
2016-Sep-24 03:33N 34°14' E 135°08'0 0.0
2016-Sep-24 02:33N 34°14' E 135°08'0 0.0
2016-Sep-24 01:33N 34°14' E 135°08'0 0.0
2016-Sep-24 00:33N 34°14' E 135°08'2 0.5
2016-Sep-23 19:26N 34°15' E 135°05'6 3.3
2016-Sep-23 17:33N 34°09' E 135°02'12 0.3
2016-Sep-22 03:23N 33°58' E 134°56'19 6.5
2016-Sep-22 00:33N 34°14' E 135°08'0 0.0
2016-Sep-21 23:33N 34°14' E 135°08'0 0.0
2016-Sep-21 22:34N 34°14' E 135°08'0 0.0
2016-Sep-21 19:33N 34°14' E 135°08'2 0.5
2016-Sep-21 16:33N 34°15' E 135°06'  
Track history (hours):
 
Tides and Currents Weather Stations Pressure Air Temp Water Temp Dewpoint Dewpoint Depression Visibility Wind Speed Wind Dir Waves Ship Positions

Taiseimaru

Last reported at 2016-Sep-30 03:33 UTC. Time now 2016-Sep-30 15:16 UTC.
Position N 34°13' E 135°07'.

Length 84 m; draft 4.7 m.

Type: Cargo ship. MMSI: 431500568.

Date/timePositionNaut miles runAvg speedWind from/ knotsBaromVisibWave heightAir tempDewpointWater temp
2016-Sep-30 03:33N 34°13' E 135°07'1 1.2
2016-Sep-30 02:34N 34°12' E 135°08'1 0.5
2016-Sep-29 23:32N 34°14' E 135°08'0 0.0
2016-Sep-29 21:32N 34°14' E 135°08'0 0.0
2016-Sep-29 20:32N 34°14' E 135°08'0 0.0
2016-Sep-29 19:32N 34°14' E 135°08'0 0.0
2016-Sep-27 19:31N 34°14' E 135°08'0 0.0
2016-Sep-27 14:33N 34°14' E 135°08'0 0.0
2016-Sep-27 13:33N 34°14' E 135°08'11 3.8
2016-Sep-27 10:34N 34°05' E 134°60'11 0.4
2016-Sep-26 02:29N 34°14' E 135°08'0 0.0
2016-Sep-26 01:32N 34°14' E 135°08'0 0.0
2016-Sep-26 00:32N 34°14' E 135°08'1 0.4
2016-Sep-25 21:33N 34°14' E 135°07'1 0.1
2016-Sep-25 17:29N 34°15' E 135°06'7 7.6
2016-Sep-25 16:33N 34°08' E 135°02'7 0.2
2016-Sep-24 03:33N 34°14' E 135°08'0 0.0
2016-Sep-24 02:33N 34°14' E 135°08'0 0.0
2016-Sep-24 01:33N 34°14' E 135°08'0 0.0
2016-Sep-24 00:33N 34°14' E 135°08'2 0.5
2016-Sep-23 19:26N 34°15' E 135°05'6 3.3
2016-Sep-23 17:33N 34°09' E 135°02'12 0.3
2016-Sep-22 03:23N 33°58' E 134°56'19 6.5
2016-Sep-22 00:33N 34°14' E 135°08'0 0.0
2016-Sep-21 23:33N 34°14' E 135°08'0 0.0
2016-Sep-21 22:34N 34°14' E 135°08'0 0.0
2016-Sep-21 19:33N 34°14' E 135°08'2 0.5
2016-Sep-21 16:33N 34°15' E 135°06'  

Dump ship's entire track history